CheckWX is a tool to help pilots better visualize weather data.  It is not intended as a substitute for an official pre-flight weather briefing.

16:56:14 UTC

FAPM TAF
Pietermaritzburg Airport
Pietermaritzburg, South Africa
TAF FAPM 180900Z 1810/1821 04005KT CAVOK TX24/1812Z TN14/1818Z BECMG 1812/1814 10008KT BECMG 1816/1818 9999 BKN020 TEMPO 1820/1821 2000 BR BKN010

Jun-18@
10:00 UTC

Jun-18 @ 10:00 UTC

Jun-18@
12:00 UTC

Jun-18 @ 12:00 UTC

TAF FAPM 180900Z 1810/1821 04005KT CAVOK TX24/1812Z TN14/1818Z

Expired

Wind
  • 040° at 5 KTS
Cloud Levels
  • No significant clouds

Jun-18@
12:00 UTC

Jun-18 @ 12:00 UTC

Jun-18@
16:00 UTC

Jun-18 @ 16:00 UTC

BECMG 1812/1814 10008KT

Expired

Wind
  • 100° at 8 KTS
Cloud Levels
  • No significant clouds

Jun-18@
16:00 UTC

Jun-18 @ 16:00 UTC

Jun-18@
21:00 UTC

Jun-18 @ 21:00 UTC

BECMG 1816/1818 9999 BKN020

Becoming

Becoming Conditions expected by Tue, Jun 18, 2019 @ 18:00 UTC

Wind
  • 100° at 8 KTS
Cloud Levels
  • Broken at 2,000' AGL

Jun-18@
20:00 UTC

Jun-18 @ 20:00 UTC

Jun-18@
21:00 UTC

Jun-18 @ 21:00 UTC

TEMPO 1820/1821 2000 BR BKN010

Temporary

Temporary Changes expected for less than half the time period

Conditions
Mist
Cloud Levels
  • Broken at 1,000' AGL